Time;durP1;ratioP1;P1;durP2;ratioP2;P2;SDS_P1;SDS_P2;PMS_P1;PMS_P2;Temp;Humidity;BMP_temperature;BMP_pressure;BME280_temperature;BME280_humidity;BME280_pressure;Samples;Min_cycle;Max_cycle;Signal;HPM_P1;HPM_P2
2024/04/14 00:00:13;;;;;;;8.27;7.47;;;;;;;;;;5606158;25;20231;-73
2024/04/14 00:02:41;;;;;;;8.57;7.87;;;;;;;;;;5604830;25;20522;-73
2024/04/14 00:05:09;;;;;;;7.80;7.03;;;;;;;;;;5595052;25;20230;-72
2024/04/14 00:07:38;;;;;;;8.23;7.53;;;;;;;;;;5575566;25;20460;-74
2024/04/14 00:10:05;;;;;;;7.87;7.10;;;;;;;;;;5575648;25;20454;-73
2024/04/14 00:12:33;;;;;;;8.73;7.60;;;;;;;;;;5580787;25;20467;-72
2024/04/14 00:14:58;;;;;;;7.93;7.23;;;;;;;;;;5595794;25;20462;-73
2024/04/14 00:17:27;;;;;;;7.93;7.07;;;;;;;;;;5595707;25;20447;-72
2024/04/14 00:19:52;;;;;;;7.13;6.43;;;;;;;;;;5599633;25;20246;-73
2024/04/14 00:22:23;;;;;;;6.80;5.63;;;;;;;;;;5591416;25;20467;-73
2024/04/14 00:24:48;;;;;;;5.67;5.17;;;;;;;;;;5591456;25;20232;-73
2024/04/14 00:27:17;;;;;;;6.53;6.07;;;;;;;;;;5589126;25;20497;-74
2024/04/14 00:29:42;;;;;;;6.70;6.00;;;;;;;;;;5603600;25;20259;-74
2024/04/14 00:32:11;;;;;;;7.00;5.70;;;;;;;;;;5602561;25;20480;-74
2024/04/14 00:34:36;;;;;;;6.10;5.50;;;;;;;;;;5582274;25;20239;-73
2024/04/14 00:37:04;;;;;;;6.00;5.50;;;;;;;;;;5588698;25;21083;-72
2024/04/14 00:39:33;;;;;;;6.00;5.40;;;;;;;;;;5585077;25;20226;-73
2024/04/14 00:42:03;;;;;;;6.17;5.63;;;;;;;;;;5587991;25;20466;-73
2024/04/14 00:44:29;;;;;;;11.60;5.73;;;;;;;;;;5597046;25;20498;-73
2024/04/14 00:46:57;;;;;;;7.67;6.07;;;;;;;;;;5574998;25;20452;-74
2024/04/14 00:49:23;;;;;;;7.37;6.77;;;;;;;;;;5590245;25;20237;-73
2024/04/14 00:51:51;;;;;;;6.50;5.90;;;;;;;;;;5578571;25;20791;-73
2024/04/14 00:54:17;;;;;;;6.40;5.30;;;;;;;;;;5600100;25;20272;-74
2024/04/14 00:56:49;;;;;;;7.40;5.73;;;;;;;;;;5590988;25;20767;-72
2024/04/14 00:59:14;;;;;;;7.60;5.10;;;;;;;;;;5576345;25;20526;-74
2024/04/14 01:01:43;;;;;;;6.53;5.93;;;;;;;;;;5599454;25;20462;-73
2024/04/14 01:04:08;;;;;;;7.57;6.20;;;;;;;;;;5574895;25;20227;-74
2024/04/14 01:06:38;;;;;;;7.03;5.67;;;;;;;;;;5603334;25;20541;-74
2024/04/14 01:09:03;;;;;;;6.10;5.60;;;;;;;;;;5569630;25;20857;-74
2024/04/14 01:11:32;;;;;;;7.10;6.27;;;;;;;;;;5590244;25;20500;-73
2024/04/14 01:14:02;;;;;;;6.00;5.50;;;;;;;;;;5587616;25;20285;-74
2024/04/14 01:16:36;;;;;;;6.97;6.40;;;;;;;;;;5580222;25;20803;-73
2024/04/14 01:19:01;;;;;;;6.13;5.57;;;;;;;;;;5582918;25;20466;-73
2024/04/14 01:21:30;;;;;;;6.40;5.90;;;;;;;;;;5590619;25;20562;-74
2024/04/14 01:23:55;;;;;;;7.50;5.73;;;;;;;;;;5584175;25;20226;-74
2024/04/14 01:26:27;;;;;;;6.93;4.93;;;;;;;;;;5596130;25;20498;-74
2024/04/14 01:28:52;;;;;;;5.17;4.70;;;;;;;;;;5590388;25;20266;-74
2024/04/14 01:31:21;;;;;;;5.50;5.03;;;;;;;;;;5600726;25;20451;-75
2024/04/14 01:33:46;;;;;;;5.90;5.40;;;;;;;;;;5587205;25;20239;-74
2024/04/14 01:36:14;;;;;;;5.20;4.70;;;;;;;;;;5610944;25;20544;-74
2024/04/14 01:38:40;;;;;;;6.20;5.60;;;;;;;;;;5585359;25;20647;-74
2024/04/14 01:41:10;;;;;;;5.83;5.30;;;;;;;;;;5590080;25;20455;-74
2024/04/14 01:43:38;;;;;;;5.43;4.93;;;;;;;;;;5582736;25;20262;-74
2024/04/14 01:46:06;;;;;;;5.80;5.17;;;;;;;;;;5601974;25;20459;-74
2024/04/14 01:48:32;;;;;;;6.00;5.10;;;;;;;;;;5581405;25;20580;-74
2024/04/14 01:51:00;;;;;;;6.00;5.50;;;;;;;;;;5589569;25;20482;-74
2024/04/14 01:53:26;;;;;;;6.40;4.93;;;;;;;;;;5609611;25;20261;-74
2024/04/14 01:55:54;;;;;;;7.37;5.43;;;;;;;;;;5607017;25;20462;-74
2024/04/14 01:58:19;;;;;;;5.30;4.90;;;;;;;;;;5592381;25;20219;-74
2024/04/14 02:00:50;;;;;;;6.10;5.70;;;;;;;;;;5604420;25;20454;-74
2024/04/14 02:03:16;;;;;;;5.33;4.90;;;;;;;;;;5580666;25;20232;-75
2024/04/14 02:05:44;;;;;;;5.10;4.70;;;;;;;;;;5582604;25;20527;-74
2024/04/14 02:08:09;;;;;;;5.10;4.73;;;;;;;;;;5577251;25;20832;-74
2024/04/14 02:10:41;;;;;;;7.20;5.57;;;;;;;;;;5600533;25;20447;-74
2024/04/14 02:13:06;;;;;;;5.73;5.23;;;;;;;;;;5585277;25;20231;-73
2024/04/14 02:15:35;;;;;;;5.37;4.93;;;;;;;;;;5600185;25;21258;-74
2024/04/14 02:18:03;;;;;;;7.33;5.40;;;;;;;;;;5586008;25;20269;-74
2024/04/14 02:20:31;;;;;;;5.30;4.90;;;;;;;;;;5592742;25;20495;-74
2024/04/14 02:22:57;;;;;;;7.77;7.07;;;;;;;;;;5601738;25;20466;-73
2024/04/14 02:25:25;;;;;;;6.43;4.97;;;;;;;;;;5600037;25;21040;-73
2024/04/14 02:27:51;;;;;;;5.50;5.00;;;;;;;;;;5601647;25;20635;-73
2024/04/14 02:30:19;;;;;;;5.20;4.80;;;;;;;;;;5606811;25;20988;-75
2024/04/14 02:32:44;;;;;;;5.47;5.07;;;;;;;;;;5568677;25;20274;-74
2024/04/14 02:35:15;;;;;;;5.83;5.43;;;;;;;;;;5593462;25;20814;-74
2024/04/14 02:37:41;;;;;;;5.90;5.40;;;;;;;;;;5591330;25;20249;-74
2024/04/14 02:40:10;;;;;;;6.20;4.70;;;;;;;;;;5590939;25;20459;-74
2024/04/14 02:42:35;;;;;;;5.30;4.77;;;;;;;;;;5587771;25;20244;-74
2024/04/14 02:45:03;;;;;;;5.77;5.30;;;;;;;;;;5587231;25;20464;-74
2024/04/14 02:47:29;;;;;;;6.27;5.67;;;;;;;;;;5594545;25;20234;-73
2024/04/14 02:49:57;;;;;;;8.53;5.50;;;;;;;;;;5588386;25;20538;-74
2024/04/14 02:52:25;;;;;;;7.23;5.67;;;;;;;;;;5597747;25;20241;-74
2024/04/14 02:54:54;;;;;;;6.57;4.87;;;;;;;;;;5580624;25;20507;-73
2024/04/14 02:57:20;;;;;;;5.13;4.73;;;;;;;;;;5591239;25;20467;-74
2024/04/14 02:59:48;;;;;;;5.17;4.50;;;;;;;;;;5564280;25;20674;-73
2024/04/14 03:02:13;;;;;;;6.20;5.50;;;;;;;;;;5587457;25;20269;-73
2024/04/14 03:04:42;;;;;;;4.90;4.50;;;;;;;;;;5590027;25;20461;-74
2024/04/14 03:07:07;;;;;;;4.93;4.63;;;;;;;;;;5589494;25;20234;-74
2024/04/14 03:09:38;;;;;;;6.87;6.20;;;;;;;;;;5597468;25;20470;-74
2024/04/14 03:12:04;;;;;;;5.73;5.33;;;;;;;;;;5585261;25;20230;-73
2024/04/14 03:14:32;;;;;;;5.67;5.00;;;;;;;;;;5584140;25;20552;-72
2024/04/14 03:16:58;;;;;;;6.43;5.83;;;;;;;;;;5560404;25;20923;-73
2024/04/14 03:19:26;;;;;;;7.77;5.70;;;;;;;;;;5589373;25;20470;-73
2024/04/14 03:21:52;;;;;;;8.37;5.37;;;;;;;;;;5596651;25;20283;-73
2024/04/14 03:24:20;;;;;;;5.50;5.00;;;;;;;;;;5597505;25;20555;-74
2024/04/14 03:26:49;;;;;;;9.07;5.70;;;;;;;;;;5590695;25;20266;-74
2024/04/14 03:29:17;;;;;;;7.97;5.43;;;;;;;;;;5606898;25;20938;-74
2024/04/14 03:31:44;;;;;;;11.60;6.10;;;;;;;;;;5595298;25;20514;-73
2024/04/14 03:34:12;;;;;;;6.43;5.70;;;;;;;;;;5569809;25;20481;-74
2024/04/14 03:36:37;;;;;;;5.90;5.37;;;;;;;;;;5592572;25;20466;-74
2024/04/14 03:39:06;;;;;;;5.73;5.27;;;;;;;;;;5577116;25;20517;-74
2024/04/14 03:41:34;;;;;;;11.67;6.60;;;;;;;;;;5575850;25;20223;-74
2024/04/14 03:44:04;;;;;;;9.37;5.87;;;;;;;;;;5582838;25;21071;-75
2024/04/14 03:46:33;;;;;;;7.10;6.40;;;;;;;;;;5608374;25;20470;-74
2024/04/14 03:48:58;;;;;;;6.80;5.67;;;;;;;;;;5590459;25;20510;-74
2024/04/14 03:51:26;;;;;;;7.10;5.87;;;;;;;;;;5584137;25;20472;-74
2024/04/14 03:53:52;;;;;;;6.50;5.50;;;;;;;;;;5592851;25;20257;-74
2024/04/14 03:56:20;;;;;;;7.13;5.97;;;;;;;;;;5577068;25;20479;-74
2024/04/14 03:58:46;;;;;;;7.00;5.80;;;;;;;;;;5587730;25;20258;-74
2024/04/14 04:01:17;;;;;;;6.47;5.87;;;;;;;;;;5586849;25;20922;-74
2024/04/14 04:03:42;;;;;;;7.87;5.90;;;;;;;;;;5583012;25;20277;-74
2024/04/14 04:06:10;;;;;;;8.93;6.30;;;;;;;;;;5579451;25;21066;-74
2024/04/14 04:08:36;;;;;;;7.03;5.63;;;;;;;;;;5585512;25;20238;-72
2024/04/14 04:11:05;;;;;;;6.20;5.10;;;;;;;;;;5588236;25;20519;-74
2024/04/14 04:13:31;;;;;;;7.97;5.43;;;;;;;;;;5589149;25;20230;-72
2024/04/14 04:15:59;;;;;;;7.70;6.27;;;;;;;;;;5590776;25;20472;-74
2024/04/14 04:18:27;;;;;;;7.00;6.30;;;;;;;;;;5590966;25;20268;-74
2024/04/14 04:20:56;;;;;;;11.07;5.83;;;;;;;;;;5577944;25;20811;-74
2024/04/14 04:23:21;;;;;;;5.53;5.03;;;;;;;;;;5571191;25;21921;-73
2024/04/14 04:25:50;;;;;;;7.73;6.20;;;;;;;;;;5594481;25;20510;-74
2024/04/14 04:28:15;;;;;;;8.87;5.43;;;;;;;;;;5578851;25;20261;-73
2024/04/14 04:30:43;;;;;;;7.30;4.90;;;;;;;;;;5599643;25;20517;-73
2024/04/14 04:33:09;;;;;;;9.37;6.63;;;;;;;;;;5575594;25;20678;-73
2024/04/14 04:35:39;;;;;;;9.63;6.37;;;;;;;;;;5565651;25;20476;-73
2024/04/14 04:38:06;;;;;;;9.00;5.47;;;;;;;;;;5588552;25;20256;-72
2024/04/14 04:40:34;;;;;;;6.17;5.07;;;;;;;;;;5592044;25;20462;-73
2024/04/14 04:42:59;;;;;;;7.07;5.80;;;;;;;;;;5587772;25;20467;-73
2024/04/14 04:45:28;;;;;;;8.17;6.57;;;;;;;;;;5593677;25;20517;-73
2024/04/14 04:47:53;;;;;;;8.33;5.40;;;;;;;;;;5585610;25;20298;-74
2024/04/14 04:50:21;;;;;;;7.67;5.87;;;;;;;;;;5585320;25;20572;-74
2024/04/14 04:52:49;;;;;;;8.17;6.03;;;;;;;;;;5591141;25;20371;-74
2024/04/14 04:55:18;;;;;;;7.27;5.43;;;;;;;;;;5590781;25;20462;-74
2024/04/14 04:57:46;;;;;;;7.50;5.23;;;;;;;;;;5587642;25;21413;-73
2024/04/14 05:00:15;;;;;;;6.17;5.50;;;;;;;;;;5586416;25;20515;-74
2024/04/14 05:02:40;;;;;;;12.57;5.93;;;;;;;;;;5580077;25;20526;-74
2024/04/14 05:05:08;;;;;;;7.43;5.90;;;;;;;;;;5586931;25;20507;-74
2024/04/14 05:07:34;;;;;;;7.57;5.70;;;;;;;;;;5585098;25;20281;-75
2024/04/14 05:10:05;;;;;;;9.70;5.40;;;;;;;;;;5571702;25;20573;-74
2024/04/14 05:12:31;;;;;;;6.30;5.70;;;;;;;;;;5577649;25;20235;-75
2024/04/14 05:15:04;;;;;;;6.97;5.27;;;;;;;;;;5591501;25;20553;-73
2024/04/14 05:17:30;;;;;;;6.80;5.63;;;;;;;;;;5580439;25;20289;-73
2024/04/14 05:19:58;;;;;;;6.33;5.40;;;;;;;;;;5584378;25;20528;-73
2024/04/14 05:22:23;;;;;;;5.30;4.90;;;;;;;;;;5570857;25;20277;-72
2024/04/14 05:24:52;;;;;;;8.70;5.93;;;;;;;;;;5573267;25;20468;-73
2024/04/14 05:27:20;;;;;;;7.53;5.70;;;;;;;;;;5595501;25;20309;-73
2024/04/14 05:29:48;;;;;;;6.00;5.40;;;;;;;;;;5565662;25;20504;-74
2024/04/14 05:32:14;;;;;;;7.13;5.40;;;;;;;;;;5586223;25;20509;-73
2024/04/14 05:34:42;;;;;;;6.40;5.87;;;;;;;;;;5591477;25;20477;-73
2024/04/14 05:37:08;;;;;;;7.80;5.00;;;;;;;;;;5579465;25;20230;-75
2024/04/14 05:39:37;;;;;;;11.50;5.80;;;;;;;;;;5585550;25;20466;-78
2024/04/14 05:42:03;;;;;;;5.97;5.40;;;;;;;;;;5598045;25;20238;-79
2024/04/14 05:44:35;;;;;;;6.53;5.33;;;;;;;;;;5571289;25;20477;-78
2024/04/14 05:47:01;;;;;;;5.50;5.00;;;;;;;;;;5596799;25;21056;-79
2024/04/14 05:49:29;;;;;;;6.20;5.70;;;;;;;;;;5581330;25;20456;-78
2024/04/14 05:51:54;;;;;;;5.93;4.80;;;;;;;;;;5591841;25;20749;-79
2024/04/14 05:54:22;;;;;;;5.10;4.70;;;;;;;;;;5600718;25;20461;-78
2024/04/14 05:56:48;;;;;;;6.30;5.37;;;;;;;;;;5587157;25;20236;-79
2024/04/14 05:59:16;;;;;;;5.60;5.20;;;;;;;;;;5590848;25;20502;-79
2024/04/14 06:01:47;;;;;;;5.80;4.80;;;;;;;;;;5597181;25;20268;-78
2024/04/14 06:04:15;;;;;;;6.30;5.70;;;;;;;;;;5589429;25;20518;-78
2024/04/14 06:06:41;;;;;;;6.80;5.03;;;;;;;;;;5579647;25;20535;-77
2024/04/14 06:09:09;;;;;;;5.73;5.10;;;;;;;;;;5598414;25;20548;-77
2024/04/14 06:11:35;;;;;;;7.97;5.10;;;;;;;;;;5589449;25;20278;-77
2024/04/14 06:14:03;;;;;;;8.00;4.97;;;;;;;;;;5579382;25;20458;-77
2024/04/14 06:16:28;;;;;;;6.10;4.90;;;;;;;;;;5599318;25;20278;-78
2024/04/14 06:18:59;;;;;;;6.73;5.73;;;;;;;;;;5595108;25;20814;-78
2024/04/14 06:21:25;;;;;;;5.80;5.30;;;;;;;;;;5595644;25;20260;-78
2024/04/14 06:23:53;;;;;;;10.87;6.93;;;;;;;;;;5583700;25;20454;-78
2024/04/14 06:26:18;;;;;;;10.40;4.77;;;;;;;;;;5567276;25;20275;-77
2024/04/14 06:28:46;;;;;;;5.63;4.83;;;;;;;;;;5593565;25;20462;-77
2024/04/14 06:31:12;;;;;;;5.80;5.30;;;;;;;;;;5570853;25;20289;-77
2024/04/14 06:33:40;;;;;;;6.60;5.13;;;;;;;;;;5575892;25;20579;-77
2024/04/14 06:36:09;;;;;;;5.47;4.97;;;;;;;;;;5583025;25;20327;-78
2024/04/14 06:38:38;;;;;;;5.70;4.80;;;;;;;;;;5582027;25;20467;-78
2024/04/14 06:41:04;;;;;;;6.20;5.10;;;;;;;;;;5579666;25;20561;-79
2024/04/14 06:43:32;;;;;;;5.70;4.90;;;;;;;;;;5587940;25;20486;-79
2024/04/14 06:45:57;;;;;;;5.60;5.10;;;;;;;;;;5601692;25;21199;-78
2024/04/14 06:48:26;;;;;;;6.87;4.60;;;;;;;;;;5589239;25;20452;-78
2024/04/14 06:50:51;;;;;;;4.53;4.10;;;;;;;;;;5592967;25;20262;-78
2024/04/14 06:53:22;;;;;;;5.00;4.50;;;;;;;;;;5576713;25;20474;-78
2024/04/14 06:55:50;;;;;;;7.13;5.60;;;;;;;;;;5587592;25;20232;-77
2024/04/14 06:58:18;;;;;;;9.60;5.20;;;;;;;;;;5583091;25;20490;-77
2024/04/14 07:00:44;;;;;;;5.67;4.50;;;;;;;;;;5574244;25;21476;-77
2024/04/14 07:03:14;;;;;;;6.67;5.00;;;;;;;;;;5588212;25;20506;-78
2024/04/14 07:05:39;;;;;;;5.10;4.70;;;;;;;;;;5594330;25;20573;-76
2024/04/14 07:08:08;;;;;;;5.73;4.87;;;;;;;;;;5603279;25;20462;-77
2024/04/14 07:10:36;;;;;;;5.60;5.13;;;;;;;;;;5595634;25;20235;-78
2024/04/14 07:13:04;;;;;;;5.37;4.97;;;;;;;;;;5596916;25;20474;-84
2024/04/14 07:15:30;;;;;;;6.33;5.00;;;;;;;;;;5599754;25;20517;-84
2024/04/14 07:17:58;;;;;;;5.30;4.90;;;;;;;;;;5589986;25;20460;-84
2024/04/14 07:20:24;;;;;;;5.10;4.70;;;;;;;;;;5569891;25;20588;-85
2024/04/14 07:22:52;;;;;;;5.33;4.83;;;;;;;;;;5578657;25;20937;-84
2024/04/14 07:25:17;;;;;;;5.10;4.80;;;;;;;;;;5592264;25;20230;-85
2024/04/14 07:27:49;;;;;;;5.70;5.03;;;;;;;;;;5584754;25;20462;-84
2024/04/14 07:30:14;;;;;;;7.23;5.53;;;;;;;;;;5590427;25;20278;-85
2024/04/14 07:32:43;;;;;;;5.80;5.27;;;;;;;;;;5600769;25;20450;-84
2024/04/14 07:35:08;;;;;;;5.77;5.37;;;;;;;;;;5589272;25;20335;-84
2024/04/14 07:37:36;;;;;;;7.20;6.10;;;;;;;;;;5594709;25;20863;-76
2024/04/14 07:40:02;;;;;;;6.50;5.90;;;;;;;;;;5588625;25;20826;-76
2024/04/14 07:42:30;;;;;;;7.40;6.60;;;;;;;;;;5581763;25;20470;-76
2024/04/14 07:44:58;;;;;;;7.50;6.03;;;;;;;;;;5571830;25;21072;-76
2024/04/14 07:47:27;;;;;;;6.00;5.60;;;;;;;;;;5578512;25;20514;-75
2024/04/14 07:49:53;;;;;;;6.57;5.97;;;;;;;;;;5582222;25;20504;-76
2024/04/14 07:52:21;;;;;;;5.47;5.07;;;;;;;;;;5588530;25;20451;-76
2024/04/14 07:54:46;;;;;;;5.33;4.93;;;;;;;;;;5602489;25;20299;-76
2024/04/14 07:57:14;;;;;;;6.97;5.60;;;;;;;;;;5586324;25;20890;-76
2024/04/14 07:59:40;;;;;;;7.40;5.57;;;;;;;;;;5597013;25;20704;-76
2024/04/14 08:02:11;;;;;;;5.67;5.17;;;;;;;;;;5566815;25;20561;-76
2024/04/14 08:04:36;;;;;;;5.43;5.03;;;;;;;;;;5578091;25;20269;-77
2024/04/14 08:07:05;;;;;;;5.87;5.47;;;;;;;;;;5580930;25;20452;-76
2024/04/14 08:09:30;;;;;;;5.90;5.23;;;;;;;;;;5582078;25;20215;-77
2024/04/14 08:11:59;;;;;;;5.83;5.33;;;;;;;;;;5581849;25;20537;-77
2024/04/14 08:14:24;;;;;;;5.37;4.60;;;;;;;;;;5574779;25;20329;-77
2024/04/14 08:16:52;;;;;;;5.03;4.53;;;;;;;;;;5598856;25;20891;-80
2024/04/14 08:19:21;;;;;;;5.73;5.10;;;;;;;;;;5596137;25;20272;-78
2024/04/14 08:21:49;;;;;;;5.33;4.83;;;;;;;;;;5590066;25;20487;-79
2024/04/14 08:24:14;;;;;;;5.47;5.10;;;;;;;;;;5589560;25;20473;-80
2024/04/14 08:26:43;;;;;;;6.97;5.17;;;;;;;;;;5590076;25;20456;-78
2024/04/14 08:29:08;;;;;;;5.80;5.20;;;;;;;;;;5589394;25;20342;-78
2024/04/14 08:31:37;;;;;;;5.37;4.30;;;;;;;;;;5577980;25;20898;-79
2024/04/14 08:34:03;;;;;;;5.33;4.87;;;;;;;;;;5576837;25;20266;-79
2024/04/14 08:36:34;;;;;;;5.90;4.83;;;;;;;;;;5591582;25;20478;-79
2024/04/14 08:38:59;;;;;;;5.87;5.30;;;;;;;;;;5581107;25;20268;-80
2024/04/14 08:41:27;;;;;;;6.33;5.53;;;;;;;;;;5605654;25;20450;-79
2024/04/14 08:43:53;;;;;;;3.90;2.40;;;;;;;;;;5590100;25;20252;-78
2024/04/14 08:46:23;;;;;;;5.13;4.70;;;;;;;;;;5577968;25;20524;-77
2024/04/14 08:48:48;;;;;;;6.20;5.70;;;;;;;;;;5589591;25;20527;-77
2024/04/14 08:51:16;;;;;;;5.80;5.30;;;;;;;;;;5588237;25;20466;-77
2024/04/14 08:53:45;;;;;;;6.43;5.83;;;;;;;;;;5587005;25;20272;-77
2024/04/14 08:56:14;;;;;;;6.53;5.00;;;;;;;;;;5597081;25;20526;-77
2024/04/14 08:58:40;;;;;;;5.83;5.27;;;;;;;;;;5576918;25;20525;-77
2024/04/14 09:01:11;;;;;;;5.30;4.90;;;;;;;;;;5584789;25;20452;-78
2024/04/14 09:03:37;;;;;;;5.17;4.70;;;;;;;;;;5580728;25;20281;-76
2024/04/14 09:06:06;;;;;;;5.67;5.10;;;;;;;;;;5586308;25;20453;-76
2024/04/14 09:08:32;;;;;;;5.60;5.20;;;;;;;;;;5594151;25;20230;-78
2024/04/14 09:11:04;;;;;;;7.13;4.87;;;;;;;;;;5587749;25;20514;-76
2024/04/14 09:13:29;;;;;;;6.07;5.00;;;;;;;;;;5578767;25;20293;-78
2024/04/14 09:15:58;;;;;;;5.43;4.93;;;;;;;;;;5580611;25;20750;-78
2024/04/14 09:18:23;;;;;;;6.83;5.30;;;;;;;;;;5567770;25;20230;-77
2024/04/14 09:20:51;;;;;;;5.43;4.90;;;;;;;;;;5579481;25;20478;-78
2024/04/14 09:23:17;;;;;;;9.03;5.27;;;;;;;;;;5583647;25;20232;-78
2024/04/14 09:25:45;;;;;;;6.30;5.17;;;;;;;;;;5576006;25;20514;-77
2024/04/14 09:28:16;;;;;;;5.33;4.60;;;;;;;;;;5577173;25;20226;-79
2024/04/14 09:30:44;;;;;;;5.57;5.10;;;;;;;;;;5572937;25;20521;-78
2024/04/14 09:33:11;;;;;;;7.30;5.27;;;;;;;;;;5567432;25;20450;-78
2024/04/14 09:35:40;;;;;;;5.67;5.17;;;;;;;;;;5558987;25;20486;-78
2024/04/14 09:38:07;;;;;;;6.47;5.90;;;;;;;;;;5566829;25;20593;-79
2024/04/14 09:40:36;;;;;;;5.60;5.20;;;;;;;;;;5578707;25;20462;-77
2024/04/14 09:43:02;;;;;;;5.70;5.20;;;;;;;;;;5583612;25;20450;-78
2024/04/14 09:45:33;;;;;;;6.13;5.60;;;;;;;;;;5579418;25;20514;-77
2024/04/14 09:47:59;;;;;;;5.70;5.30;;;;;;;;;;5587591;25;20227;-78
2024/04/14 09:50:28;;;;;;;8.60;5.03;;;;;;;;;;5593264;25;20570;-77
2024/04/14 09:52:55;;;;;;;8.87;5.43;;;;;;;;;;5572754;25;20459;-77
2024/04/14 09:55:23;;;;;;;5.33;4.90;;;;;;;;;;5577154;25;20467;-76
2024/04/14 09:57:49;;;;;;;5.47;4.97;;;;;;;;;;5591248;25;20508;-77
2024/04/14 10:00:19;;;;;;;6.73;5.00;;;;;;;;;;5592706;25;20547;-77
2024/04/14 10:02:49;;;;;;;6.40;5.87;;;;;;;;;;5591633;25;20463;-77
2024/04/14 10:05:19;;;;;;;6.60;5.80;;;;;;;;;;5595742;25;20466;-78
2024/04/14 10:07:47;;;;;;;6.90;5.40;;;;;;;;;;5597025;25;21219;-79
2024/04/14 10:10:16;;;;;;;9.43;6.10;;;;;;;;;;5588321;25;20467;-76
2024/04/14 10:12:42;;;;;;;5.33;4.83;;;;;;;;;;5577726;25;20564;-79
2024/04/14 10:15:16;;;;;;;5.80;5.13;;;;;;;;;;5600653;25;20559;-78
2024/04/14 10:17:43;;;;;;;6.17;5.57;;;;;;;;;;5584000;25;20597;-78
2024/04/14 10:20:18;;;;;;;6.00;5.20;;;;;;;;;;5598422;25;20541;-78
2024/04/14 10:22:45;;;;;;;7.70;5.80;;;;;;;;;;5582743;25;20458;-78
2024/04/14 10:25:21;;;;;;;5.97;5.57;;;;;;;;;;5595997;25;20522;-77
2024/04/14 10:27:46;;;;;;;7.23;5.70;;;;;;;;;;5571179;25;21389;-79
2024/04/14 10:30:20;;;;;;;7.03;5.90;;;;;;;;;;5586632;25;20513;-79
2024/04/14 10:32:49;;;;;;;6.33;5.83;;;;;;;;;;5598448;25;20268;-80
2024/04/14 10:35:18;;;;;;;6.53;6.03;;;;;;;;;;5588501;25;20622;-79
2024/04/14 10:37:54;;;;;;;7.07;6.40;;;;;;;;;;5584359;25;20574;-80
2024/04/14 10:40:20;;;;;;;6.00;5.50;;;;;;;;;;5598266;25;20512;-81
2024/04/14 10:42:48;;;;;;;6.87;5.63;;;;;;;;;;5595019;25;20473;-80
2024/04/14 10:45:23;;;;;;;6.37;5.73;;;;;;;;;;5587817;25;20274;-80
2024/04/14 10:47:52;;;;;;;7.07;5.80;;;;;;;;;;5576639;25;20451;-80
2024/04/14 10:50:20;;;;;;;7.60;5.40;;;;;;;;;;5585530;25;20549;-81
2024/04/14 10:52:49;;;;;;;5.90;5.33;;;;;;;;;;5571188;25;21006;-81
2024/04/14 10:55:14;;;;;;;6.50;5.90;;;;;;;;;;5576994;25;20483;-80
2024/04/14 10:57:43;;;;;;;8.17;5.70;;;;;;;;;;5601328;25;20595;-81
2024/04/14 11:00:09;;;;;;;6.00;5.50;;;;;;;;;;5579428;25;20234;-80
2024/04/14 11:02:37;;;;;;;6.30;5.77;;;;;;;;;;5583172;25;20551;-81
2024/04/14 11:05:03;;;;;;;7.80;5.60;;;;;;;;;;5571200;25;20483;-80
2024/04/14 11:07:34;;;;;;;8.73;5.43;;;;;;;;;;5577480;25;20500;-80
2024/04/14 11:09:59;;;;;;;8.90;6.07;;;;;;;;;;5593179;25;20478;-81
2024/04/14 11:12:28;;;;;;;6.17;5.67;;;;;;;;;;5586954;25;20465;-80
2024/04/14 11:14:54;;;;;;;6.17;5.60;;;;;;;;;;5581614;25;20232;-80
2024/04/14 11:17:22;;;;;;;6.23;5.73;;;;;;;;;;5590910;25;20562;-80
2024/04/14 11:19:48;;;;;;;6.03;5.53;;;;;;;;;;5595361;25;20553;-80
2024/04/14 11:22:18;;;;;;;5.90;5.50;;;;;;;;;;5584900;25;20507;-79
2024/04/14 11:24:48;;;;;;;6.70;5.97;;;;;;;;;;5591787;25;20913;-79
2024/04/14 11:27:17;;;;;;;6.10;5.70;;;;;;;;;;5584981;25;20849;-79
2024/04/14 11:29:42;;;;;;;8.00;6.40;;;;;;;;;;5593450;25;21137;-78
2024/04/14 11:32:28;;;;;;;6.80;6.20;;;;;;;;;;5582872;25;20472;-79
2024/04/14 11:34:55;;;;;;;7.57;6.83;;;;;;;;;;5587980;25;20292;-79
2024/04/14 11:37:24;;;;;;;7.47;5.80;;;;;;;;;;5575932;25;20582;-79
2024/04/14 11:39:52;;;;;;;6.20;5.70;;;;;;;;;;5589616;25;20450;-80
2024/04/14 11:42:20;;;;;;;6.33;5.87;;;;;;;;;;5591555;25;20454;-80
2024/04/14 11:44:45;;;;;;;7.40;6.50;;;;;;;;;;5585068;25;20475;-79
2024/04/14 11:47:14;;;;;;;5.90;5.40;;;;;;;;;;5592778;25;20466;-79
2024/04/14 11:49:39;;;;;;;6.53;5.93;;;;;;;;;;5566428;25;20244;-79
2024/04/14 11:52:07;;;;;;;7.10;5.57;;;;;;;;;;5578298;25;20569;-79
2024/04/14 11:54:33;;;;;;;7.40;4.93;;;;;;;;;;5587096;25;20224;-79
2024/04/14 11:57:04;;;;;;;5.50;5.00;;;;;;;;;;5589271;25;20517;-79
2024/04/14 11:59:30;;;;;;;5.60;5.20;;;;;;;;;;5570844;25;20629;-79
2024/04/14 12:01:58;;;;;;;6.77;5.90;;;;;;;;;;5594921;25;20586;-79
2024/04/14 12:04:24;;;;;;;7.53;5.67;;;;;;;;;;5568923;25;20736;-79
2024/04/14 12:06:52;;;;;;;5.87;5.30;;;;;;;;;;5578477;25;20459;-79
2024/04/14 12:09:18;;;;;;;5.57;5.17;;;;;;;;;;5575956;25;20232;-79
2024/04/14 12:11:46;;;;;;;11.40;6.07;;;;;;;;;;5589298;25;20904;-79
2024/04/14 12:14:14;;;;;;;7.63;6.00;;;;;;;;;;5584705;25;20322;-80
2024/04/14 12:16:43;;;;;;;8.27;5.73;;;;;;;;;;5581455;25;20458;-80
2024/04/14 12:19:08;;;;;;;6.43;5.70;;;;;;;;;;5588308;25;20460;-80
2024/04/14 12:21:37;;;;;;;5.80;5.40;;;;;;;;;;5583193;25;20922;-80
2024/04/14 12:24:03;;;;;;;5.70;5.30;;;;;;;;;;5583113;25;20903;-80
2024/04/14 12:26:31;;;;;;;6.33;5.43;;;;;;;;;;5570241;25;20456;-81
2024/04/14 12:28:57;;;;;;;7.70;7.17;;;;;;;;;;5578925;25;20513;-80
2024/04/14 12:31:28;;;;;;;9.27;5.97;;;;;;;;;;5587011;25;20579;-80
2024/04/14 12:33:54;;;;;;;5.70;5.30;;;;;;;;;;5580711;25;20478;-80
2024/04/14 12:36:23;;;;;;;6.10;5.70;;;;;;;;;;5578052;25;20470;-81
2024/04/14 12:38:49;;;;;;;7.00;6.40;;;;;;;;;;5578437;25;20265;-81
2024/04/14 12:41:17;;;;;;;6.83;6.17;;;;;;;;;;5574989;25;20474;-80
2024/04/14 12:43:43;;;;;;;5.83;5.33;;;;;;;;;;5566612;25;20869;-81
2024/04/14 12:46:11;;;;;;;6.63;6.03;;;;;;;;;;5578196;25;20567;-79
2024/04/14 12:48:43;;;;;;;7.97;5.70;;;;;;;;;;5585804;25;20269;-80
2024/04/14 12:51:12;;;;;;;6.20;5.77;;;;;;;;;;5583606;25;20656;-79
2024/04/14 12:53:37;;;;;;;6.03;5.53;;;;;;;;;;5582906;25;20480;-79
2024/04/14 12:56:06;;;;;;;6.10;5.70;;;;;;;;;;5573811;25;20519;-79
2024/04/14 12:58:32;;;;;;;7.63;5.53;;;;;;;;;;5589885;25;20274;-80
2024/04/14 13:01:02;;;;;;;6.40;5.30;;;;;;;;;;5576496;25;20482;-80
2024/04/14 13:03:29;;;;;;;5.80;5.30;;;;;;;;;;5576195;25;20228;-80
2024/04/14 13:06:01;;;;;;;7.50;5.20;;;;;;;;;;5576882;25;20561;-80
2024/04/14 13:08:27;;;;;;;5.97;5.50;;;;;;;;;;5580856;25;20463;-80
2024/04/14 13:10:55;;;;;;;5.83;5.20;;;;;;;;;;5580173;25;20459;-80
2024/04/14 13:13:21;;;;;;;5.87;5.33;;;;;;;;;;5566748;25;20265;-80
2024/04/14 13:15:50;;;;;;;5.33;4.83;;;;;;;;;;5594955;25;20466;-80
2024/04/14 13:18:15;;;;;;;6.37;5.90;;;;;;;;;;5579711;25;20367;-80
2024/04/14 13:20:44;;;;;;;6.87;5.77;;;;;;;;;;5596839;25;20457;-80
2024/04/14 13:23:12;;;;;;;11.13;5.60;;;;;;;;;;5579525;25;20227;-80
2024/04/14 13:25:40;;;;;;;6.30;5.70;;;;;;;;;;5594683;25;21070;-80
2024/04/14 13:28:05;;;;;;;6.27;5.03;;;;;;;;;;5594197;25;20466;-79
2024/04/14 13:30:34;;;;;;;6.00;5.43;;;;;;;;;;5586425;25;20482;-79
2024/04/14 13:32:59;;;;;;;6.03;5.53;;;;;;;;;;5576880;25;20285;-79
2024/04/14 13:35:27;;;;;;;5.50;5.00;;;;;;;;;;5592349;25;20699;-80
2024/04/14 13:37:53;;;;;;;5.80;5.33;;;;;;;;;;5587645;25;20226;-80
2024/04/14 13:40:24;;;;;;;5.70;5.40;;;;;;;;;;5600525;25;20458;-80
2024/04/14 13:42:50;;;;;;;5.50;4.73;;;;;;;;;;5596681;25;20273;-81
2024/04/14 13:45:18;;;;;;;5.67;5.30;;;;;;;;;;5573839;25;20478;-81
2024/04/14 13:47:46;;;;;;;6.23;5.70;;;;;;;;;;5585162;25;20562;-80
2024/04/14 13:50:12;;;;;;;8.20;6.93;;;;;;;;;;5585333;25;20463;-80
2024/04/14 13:52:41;;;;;;;7.57;6.70;;;;;;;;;;5588165;25;20462;-80
2024/04/14 13:55:06;;;;;;;6.47;5.87;;;;;;;;;;5585462;25;20276;-80
2024/04/14 13:57:37;;;;;;;6.00;5.50;;;;;;;;;;5563988;25;20450;-79
2024/04/14 14:00:03;;;;;;;7.97;5.20;;;;;;;;;;5590004;25;20226;-78
2024/04/14 14:02:34;;;;;;;6.00;5.57;;;;;;;;;;5592513;25;20510;-82
2024/04/14 14:05:00;;;;;;;6.57;6.13;;;;;;;;;;5583046;25;20463;-82
2024/04/14 14:07:31;;;;;;;8.03;5.63;;;;;;;;;;5586517;25;20471;-79
2024/04/14 14:09:56;;;;;;;7.23;6.53;;;;;;;;;;5610856;25;20269;-80
2024/04/14 14:12:24;;;;;;;5.97;5.30;;;;;;;;;;5581549;25;20467;-79
2024/04/14 14:14:53;;;;;;;8.10;7.37;;;;;;;;;;5589192;25;20238;-81
2024/04/14 14:17:21;;;;;;;12.43;11.07;;;;;;;;;;5597775;25;20510;-80
2024/04/14 14:19:48;;;;;;;6.40;5.53;;;;;;;;;;5562571;25;20467;-78
2024/04/14 14:22:17;;;;;;;7.77;5.60;;;;;;;;;;5590383;25;20463;-79
2024/04/14 14:24:42;;;;;;;6.47;5.43;;;;;;;;;;5582522;25;20459;-79
2024/04/14 14:27:11;;;;;;;7.93;7.10;;;;;;;;;;5604104;25;20530;-80
2024/04/14 14:29:37;;;;;;;6.57;5.97;;;;;;;;;;5585448;25;20271;-80
2024/04/14 14:32:08;;;;;;;5.53;5.13;;;;;;;;;;5583640;25;20462;-80
2024/04/14 14:37:20;;;;;;;8.33;5.50;;;;;;;;;;5596501;25;20557;-80
2024/04/14 14:39:46;;;;;;;6.20;5.90;;;;;;;;;;5572594;25;20467;-80
2024/04/14 14:42:14;;;;;;;6.00;5.47;;;;;;;;;;5600253;25;20528;-80
2024/04/14 14:44:42;;;;;;;5.80;5.30;;;;;;;;;;5583162;25;20268;-80
2024/04/14 14:47:10;;;;;;;6.43;5.73;;;;;;;;;;5584149;25;20947;-79